Terminal Aerodrome Forecast
Issued by NWS

Home | Current Version | Previous Version | Text Only | Print | Product List | Glossary On
Versions: 1 2 3 4 5 6 7 8 9 10 11 12 13 14 15 16 17 18 19 20 21 22 23 24 25 26 27 28 29 30 31 32 33 34 35 36 37
000
FTUS44 KFWD 241127
TAFDAL
TAF
KDAL 241127Z 2412/2512 33005KT 1SM -RA VCTS OVC002CB
      TEMPO 2412/2415 2SM -TSRA OVC004CB
     FM241500 20013KT 3SM BR VCTS OVC006CB
      TEMPO 2415/2417 27015G25KT 1SM TSRA
     FM241800 27016KT P6SM BKN015
     FM241900 27013KT P6SM SCT025
     FM250000 30010KT P6SM SCT250
     FM250900 05007KT P6SM FEW250=

USA.gov is the U.S. government's official web portal to all federal, state and local government web resources and services.